TUI19Z EDDH-LOWS
Flight info
| Callsign | TUI19Z |
|---|---|
| Flight time | 1h 1m |
| Altitude | 35000 |
| Route | AMLUH2C AMLUH M852 DENIX DCT ZUCKA DCT SODRO T703 ARBAX T108 OSTES T700 BADIT BADIT2R |
| Aircraft | B738/M-SDE2E3FGHIRWXY/LB1 |
Departure
| Time | 2026-05-07 14:20 |
|---|---|
| Airport | Hamburg Helmut Schmidt Airport (EDDH) |
Arrival
| Time | 2026-05-07 15:21 |
|---|---|
| Airport | Salzburg Airport (LOWS) |
| Time | Latitude | Longitude | Altitude | Speed | Heading |
|---|---|---|---|---|---|
| 2026-05-07 13:45 | 53.63449 | 10.00308 | 47 ft | 0 kts | 86° |
| 2026-05-07 14:02 | 53.63448 | 10.00286 | 45 ft | 4 kts | 91° |
| 2026-05-07 14:02 | 53.63452 | 10.00243 | 46 ft | 4 kts | 118° |
| 2026-05-07 14:02 | 53.63468 | 10.00217 | 44 ft | 3 kts | 174° |
| 2026-05-07 14:02 | 53.63470 | 10.00216 | 44 ft | 1 kts | 176° |
| 2026-05-07 14:05 | 53.63468 | 10.00216 | 44 ft | 2 kts | 176° |
| 2026-05-07 14:06 | 53.63419 | 10.00222 | 46 ft | 11 kts | 176° |
| 2026-05-07 14:06 | 53.63330 | 10.00233 | 47 ft | 16 kts | 176° |
| 2026-05-07 14:06 | 53.63213 | 10.00247 | 47 ft | 17 kts | 175° |
| 2026-05-07 14:06 | 53.63099 | 10.00261 | 47 ft | 16 kts | 176° |
| 2026-05-07 14:07 | 53.63000 | 10.00189 | 47 ft | 16 kts | 213° |
| 2026-05-07 14:07 | 53.62910 | 10.00092 | 44 ft | 15 kts | 213° |
| 2026-05-07 14:07 | 53.62851 | 10.00012 | 47 ft | 9 kts | 223° |
| 2026-05-07 14:07 | 53.62824 | 9.99980 | 47 ft | 1 kts | 211° |
| 2026-05-07 14:08 | 53.62816 | 9.99972 | 46 ft | 2 kts | 211° |
| 2026-05-07 14:08 | 53.62783 | 9.99940 | 44 ft | 11 kts | 210° |
| 2026-05-07 14:08 | 53.62679 | 9.99845 | 42 ft | 20 kts | 211° |
| 2026-05-07 14:08 | 53.62627 | 9.99661 | 46 ft | 16 kts | 259° |
| 2026-05-07 14:09 | 53.62607 | 9.99482 | 43 ft | 15 kts | 259° |
| 2026-05-07 14:09 | 53.62587 | 9.99307 | 46 ft | 16 kts | 259° |
| 2026-05-07 14:09 | 53.62567 | 9.99125 | 46 ft | 16 kts | 259° |
| 2026-05-07 14:09 | 53.62541 | 9.98902 | 46 ft | 22 kts | 259° |
| 2026-05-07 14:10 | 53.62514 | 9.98663 | 46 ft | 19 kts | 259° |
| 2026-05-07 14:10 | 53.62489 | 9.98440 | 46 ft | 21 kts | 259° |
| 2026-05-07 14:10 | 53.62450 | 9.98166 | 43 ft | 25 kts | 246° |
| 2026-05-07 14:10 | 53.62353 | 9.97933 | 46 ft | 24 kts | 230° |
| 2026-05-07 14:11 | 53.62252 | 9.97728 | 46 ft | 16 kts | 230° |
| 2026-05-07 14:11 | 53.62192 | 9.97604 | 46 ft | 10 kts | 236° |
| 2026-05-07 14:11 | 53.62178 | 9.97527 | 46 ft | 2 kts | 270° |
| 2026-05-07 14:11 | 53.62179 | 9.97505 | 46 ft | 2 kts | 275° |
| 2026-05-07 14:12 | 53.62179 | 9.97502 | 46 ft | 0 kts | 276° |
| 2026-05-07 14:15 | 53.62184 | 9.97468 | 45 ft | 7 kts | 289° |
| 2026-05-07 14:15 | 53.62204 | 9.97416 | 43 ft | 0 kts | 313° |
| 2026-05-07 14:17 | 53.62204 | 9.97415 | 43 ft | 1 kts | 313° |
| 2026-05-07 14:17 | 53.62225 | 9.97388 | 41 ft | 8 kts | 326° |
| 2026-05-07 14:18 | 53.62297 | 9.97342 | 39 ft | 11 kts | 18° |
| 2026-05-07 14:18 | 53.62321 | 9.97371 | 36 ft | 0 kts | 49° |
| 2026-05-07 14:19 | 53.62334 | 9.97398 | 39 ft | 16 kts | 51° |
| 2026-05-07 14:19 | 53.62559 | 9.97855 | 40 ft | 85 kts | 50° |
| 2026-05-07 14:20 | 53.63067 | 9.98884 | 46 ft | 141 kts | 49° |
| 2026-05-07 14:20 | 53.63735 | 10.00206 | 475 ft | 151 kts | 53° |
| 2026-05-07 14:20 | 53.64410 | 10.01586 | 1268 ft | 151 kts | 51° |
| 2026-05-07 14:20 | 53.65111 | 10.03021 | 1832 ft | 167 kts | 51° |
| 2026-05-07 14:21 | 53.65915 | 10.04666 | 2205 ft | 190 kts | 51° |
| 2026-05-07 14:21 | 53.66780 | 10.06431 | 2755 ft | 198 kts | 51° |
| 2026-05-07 14:21 | 53.67660 | 10.08229 | 3364 ft | 201 kts | 51° |
| 2026-05-07 14:21 | 53.68565 | 10.10079 | 3934 ft | 206 kts | 52° |
| 2026-05-07 14:22 | 53.69478 | 10.11947 | 4630 ft | 205 kts | 51° |
| 2026-05-07 14:22 | 53.70377 | 10.13824 | 5261 ft | 206 kts | 57° |
| 2026-05-07 14:22 | 53.70810 | 10.16139 | 5706 ft | 215 kts | 91° |
| 2026-05-07 14:22 | 53.70393 | 10.18541 | 6383 ft | 218 kts | 121° |
| 2026-05-07 14:23 | 53.69276 | 10.20274 | 6890 ft | 228 kts | 152° |
| 2026-05-07 14:23 | 53.67769 | 10.21190 | 7481 ft | 232 kts | 162° |
| 2026-05-07 14:23 | 53.66148 | 10.21931 | 7763 ft | 250 kts | 164° |
| 2026-05-07 14:23 | 53.64433 | 10.22675 | 8231 ft | 260 kts | 164° |
| 2026-05-07 14:24 | 53.62608 | 10.23468 | 8583 ft | 278 kts | 164° |
| 2026-05-07 14:24 | 53.60710 | 10.24302 | 9281 ft | 284 kts | 165° |
| 2026-05-07 14:24 | 53.58780 | 10.25158 | 10075 ft | 287 kts | 165° |
| 2026-05-07 14:24 | 53.56817 | 10.26034 | 10534 ft | 302 kts | 165° |
| 2026-05-07 14:25 | 53.54710 | 10.26980 | 10703 ft | 325 kts | 165° |
| 2026-05-07 14:25 | 53.52445 | 10.28000 | 10884 ft | 347 kts | 165° |
| 2026-05-07 14:25 | 53.50059 | 10.29076 | 11206 ft | 361 kts | 165° |
| 2026-05-07 14:25 | 53.47613 | 10.30178 | 11823 ft | 366 kts | 165° |
| 2026-05-07 14:26 | 53.45175 | 10.31276 | 12536 ft | 369 kts | 165° |
| 2026-05-07 14:26 | 53.42676 | 10.32399 | 13247 ft | 373 kts | 165° |
| 2026-05-07 14:26 | 53.40153 | 10.33532 | 13948 ft | 377 kts | 165° |
| 2026-05-07 14:26 | 53.37592 | 10.34681 | 14562 ft | 383 kts | 165° |
| 2026-05-07 14:27 | 53.35005 | 10.35841 | 15214 ft | 387 kts | 166° |
| 2026-05-07 14:27 | 53.32440 | 10.36989 | 15913 ft | 389 kts | 165° |
| 2026-05-07 14:27 | 53.29821 | 10.38161 | 16622 ft | 392 kts | 166° |
| 2026-05-07 14:27 | 53.27166 | 10.39347 | 17232 ft | 397 kts | 166° |
| 2026-05-07 14:28 | 53.24482 | 10.40545 | 17880 ft | 401 kts | 166° |
| 2026-05-07 14:28 | 53.21775 | 10.41752 | 18572 ft | 404 kts | 166° |
| 2026-05-07 14:28 | 53.19050 | 10.42966 | 19177 ft | 406 kts | 166° |
| 2026-05-07 14:28 | 53.16309 | 10.44186 | 19748 ft | 409 kts | 167° |
| 2026-05-07 14:29 | 53.13581 | 10.45396 | 20290 ft | 412 kts | 167° |
| 2026-05-07 14:29 | 53.10773 | 10.46500 | 20847 ft | 415 kts | 169° |
| 2026-05-07 14:29 | 53.07930 | 10.47429 | 21409 ft | 417 kts | 171° |
| 2026-05-07 14:29 | 53.05062 | 10.48290 | 21960 ft | 420 kts | 171° |
| 2026-05-07 14:30 | 53.02179 | 10.49139 | 22481 ft | 423 kts | 172° |
| 2026-05-07 14:30 | 52.99266 | 10.50001 | 22996 ft | 426 kts | 171° |
| 2026-05-07 14:30 | 52.96351 | 10.50876 | 23508 ft | 429 kts | 171° |
| 2026-05-07 14:30 | 52.93400 | 10.51773 | 23940 ft | 432 kts | 171° |
| 2026-05-07 14:31 | 52.90430 | 10.52684 | 24344 ft | 435 kts | 171° |
| 2026-05-07 14:31 | 52.87453 | 10.53602 | 24761 ft | 437 kts | 171° |
| 2026-05-07 14:31 | 52.84456 | 10.54526 | 25174 ft | 439 kts | 171° |
| 2026-05-07 14:31 | 52.81442 | 10.55457 | 25554 ft | 442 kts | 171° |
| 2026-05-07 14:32 | 52.78455 | 10.56378 | 25936 ft | 444 kts | 171° |
| 2026-05-07 14:32 | 52.75405 | 10.57316 | 26294 ft | 447 kts | 170° |
| 2026-05-07 14:32 | 52.72336 | 10.58259 | 26631 ft | 450 kts | 171° |
| 2026-05-07 14:32 | 52.69251 | 10.59205 | 26998 ft | 452 kts | 170° |
| 2026-05-07 14:33 | 52.66143 | 10.60157 | 27334 ft | 455 kts | 171° |
| 2026-05-07 14:33 | 52.63019 | 10.61113 | 27677 ft | 458 kts | 171° |
| 2026-05-07 14:33 | 52.59883 | 10.62072 | 28018 ft | 460 kts | 170° |
| 2026-05-07 14:33 | 52.56727 | 10.63034 | 28352 ft | 462 kts | 170° |
| 2026-05-07 14:34 | 52.53560 | 10.63998 | 28656 ft | 464 kts | 171° |
| 2026-05-07 14:34 | 52.50379 | 10.64965 | 28995 ft | 465 kts | 171° |
| 2026-05-07 14:34 | 52.47203 | 10.65929 | 29472 ft | 464 kts | 171° |
| 2026-05-07 14:34 | 52.44035 | 10.66890 | 30032 ft | 461 kts | 170° |
| 2026-05-07 14:35 | 52.40883 | 10.67844 | 30508 ft | 459 kts | 171° |
| 2026-05-07 14:35 | 52.37735 | 10.68795 | 30836 ft | 460 kts | 170° |
| 2026-05-07 14:35 | 52.34590 | 10.69744 | 31133 ft | 461 kts | 170° |
| 2026-05-07 14:35 | 52.31432 | 10.70695 | 31484 ft | 461 kts | 171° |
| 2026-05-07 14:36 | 52.28283 | 10.71643 | 31843 ft | 460 kts | 171° |
| 2026-05-07 14:36 | 52.25176 | 10.72576 | 32206 ft | 459 kts | 170° |
| 2026-05-07 14:36 | 52.22040 | 10.73517 | 32545 ft | 459 kts | 170° |
| 2026-05-07 14:36 | 52.19176 | 10.74375 | 32861 ft | 458 kts | 170° |
| 2026-05-07 14:37 | 52.16045 | 10.75312 | 33261 ft | 457 kts | 170° |
| 2026-05-07 14:37 | 52.09772 | 10.77186 | 33799 ft | 459 kts | 170° |
| 2026-05-07 14:37 | 52.06625 | 10.78123 | 34114 ft | 459 kts | 170° |
| 2026-05-07 14:38 | 52.03483 | 10.79058 | 34397 ft | 458 kts | 170° |
| 2026-05-07 14:38 | 52.00355 | 10.79987 | 34702 ft | 457 kts | 170° |
| 2026-05-07 14:38 | 51.98287 | 10.80600 | 34892 ft | 456 kts | 170° |
| 2026-05-07 14:38 | 51.95167 | 10.81525 | 35135 ft | 456 kts | 170° |
| 2026-05-07 14:39 | 51.92048 | 10.82448 | 35416 ft | 455 kts | 170° |
| 2026-05-07 14:39 | 51.88941 | 10.83367 | 35684 ft | 454 kts | 171° |
| 2026-05-07 14:39 | 51.85834 | 10.84284 | 35911 ft | 454 kts | 171° |
| 2026-05-07 14:39 | 51.82725 | 10.85200 | 36126 ft | 454 kts | 171° |
| 2026-05-07 14:40 | 51.79612 | 10.86117 | 36377 ft | 454 kts | 171° |
| 2026-05-07 14:40 | 51.76501 | 10.87032 | 36620 ft | 453 kts | 171° |
| 2026-05-07 14:40 | 51.73402 | 10.87941 | 36848 ft | 453 kts | 171° |
| 2026-05-07 14:40 | 51.70296 | 10.88852 | 37060 ft | 453 kts | 171° |
| 2026-05-07 14:41 | 51.64253 | 10.91953 | 37066 ft | 459 kts | 155° |
| 2026-05-07 14:41 | 51.58556 | 10.96530 | 37057 ft | 456 kts | 154° |
| 2026-05-07 14:42 | 51.52937 | 11.01065 | 37060 ft | 453 kts | 155° |
| 2026-05-07 14:42 | 51.47298 | 11.05535 | 37061 ft | 452 kts | 155° |
| 2026-05-07 14:43 | 51.41637 | 11.09973 | 37045 ft | 452 kts | 155° |
| 2026-05-07 14:43 | 51.35972 | 11.14394 | 37057 ft | 453 kts | 155° |
| 2026-05-07 14:44 | 51.30292 | 11.18816 | 37043 ft | 454 kts | 155° |
| 2026-05-07 14:44 | 51.24603 | 11.23234 | 37050 ft | 454 kts | 155° |
| 2026-05-07 14:45 | 51.18954 | 11.27610 | 37064 ft | 455 kts | 155° |
| 2026-05-07 14:45 | 51.13259 | 11.32008 | 37051 ft | 457 kts | 155° |
| 2026-05-07 14:46 | 51.07519 | 11.36430 | 37055 ft | 458 kts | 155° |
| 2026-05-07 14:46 | 51.01771 | 11.40846 | 37032 ft | 459 kts | 156° |
| 2026-05-07 14:47 | 50.96004 | 11.45265 | 37046 ft | 460 kts | 156° |
| 2026-05-07 14:47 | 50.90447 | 11.49511 | 37033 ft | 458 kts | 156° |
| 2026-05-07 14:48 | 50.84721 | 11.53874 | 37039 ft | 455 kts | 156° |
| 2026-05-07 14:48 | 50.79024 | 11.58203 | 37036 ft | 453 kts | 156° |
| 2026-05-07 14:49 | 50.73384 | 11.62477 | 37031 ft | 452 kts | 156° |
| 2026-05-07 14:49 | 50.67709 | 11.66766 | 37034 ft | 452 kts | 156° |
| 2026-05-07 14:50 | 50.62024 | 11.71051 | 37037 ft | 453 kts | 156° |
| 2026-05-07 14:50 | 50.56311 | 11.75347 | 37029 ft | 455 kts | 156° |
| 2026-05-07 14:51 | 50.50592 | 11.79637 | 37014 ft | 456 kts | 156° |
| 2026-05-07 14:51 | 50.44842 | 11.83910 | 37006 ft | 458 kts | 158° |
| 2026-05-07 14:52 | 50.38986 | 11.87876 | 37000 ft | 458 kts | 159° |
| 2026-05-07 14:52 | 50.33104 | 11.91792 | 36994 ft | 459 kts | 159° |
| 2026-05-07 14:53 | 50.27230 | 11.95755 | 36991 ft | 460 kts | 158° |
| 2026-05-07 14:53 | 50.21221 | 11.99073 | 37006 ft | 457 kts | 166° |
| 2026-05-07 14:54 | 50.15072 | 12.01637 | 36996 ft | 457 kts | 167° |
| 2026-05-07 14:54 | 50.08935 | 12.04172 | 37000 ft | 456 kts | 167° |
| 2026-05-07 14:55 | 50.02863 | 12.06756 | 37008 ft | 455 kts | 166° |
| 2026-05-07 14:55 | 49.96747 | 12.09393 | 36693 ft | 458 kts | 166° |
| 2026-05-07 14:56 | 49.93683 | 12.10717 | 36450 ft | 455 kts | 166° |
| 2026-05-07 14:56 | 49.90643 | 12.12029 | 36194 ft | 454 kts | 166° |
| 2026-05-07 14:56 | 49.87596 | 12.13343 | 35947 ft | 454 kts | 166° |
| 2026-05-07 14:56 | 49.84549 | 12.14653 | 35707 ft | 454 kts | 166° |
| 2026-05-07 14:57 | 49.81495 | 12.15964 | 35482 ft | 454 kts | 166° |
| 2026-05-07 14:57 | 49.78450 | 12.17270 | 35244 ft | 454 kts | 166° |
| 2026-05-07 14:57 | 49.75401 | 12.18575 | 35002 ft | 455 kts | 166° |
| 2026-05-07 14:57 | 49.72397 | 12.19859 | 34646 ft | 454 kts | 166° |
| 2026-05-07 14:58 | 49.69349 | 12.21160 | 33973 ft | 453 kts | 166° |
| 2026-05-07 14:58 | 49.66327 | 12.22449 | 33233 ft | 449 kts | 166° |
| 2026-05-07 14:58 | 49.63324 | 12.23726 | 32507 ft | 445 kts | 167° |
| 2026-05-07 14:58 | 49.60350 | 12.24988 | 31823 ft | 444 kts | 167° |
| 2026-05-07 14:59 | 49.57360 | 12.26259 | 31107 ft | 446 kts | 167° |
| 2026-05-07 14:59 | 49.54351 | 12.27535 | 30367 ft | 449 kts | 166° |
| 2026-05-07 14:59 | 49.51326 | 12.28817 | 29585 ft | 451 kts | 166° |
| 2026-05-07 14:59 | 49.48315 | 12.30093 | 29024 ft | 447 kts | 167° |
| 2026-05-07 15:00 | 49.45392 | 12.31330 | 28489 ft | 442 kts | 167° |
| 2026-05-07 15:00 | 49.42398 | 12.32595 | 27919 ft | 438 kts | 167° |
| 2026-05-07 15:00 | 49.39471 | 12.33830 | 27387 ft | 434 kts | 167° |
| 2026-05-07 15:00 | 49.36583 | 12.35048 | 26826 ft | 426 kts | 167° |
| 2026-05-07 15:01 | 49.33744 | 12.36243 | 26289 ft | 419 kts | 167° |
| 2026-05-07 15:01 | 49.30963 | 12.37412 | 25769 ft | 412 kts | 167° |
| 2026-05-07 15:01 | 49.28224 | 12.38563 | 25245 ft | 404 kts | 168° |
| 2026-05-07 15:01 | 49.25545 | 12.39684 | 24767 ft | 406 kts | 168° |
| 2026-05-07 15:02 | 49.22825 | 12.40821 | 24258 ft | 402 kts | 168° |
| 2026-05-07 15:02 | 49.20144 | 12.41942 | 23768 ft | 397 kts | 168° |
| 2026-05-07 15:02 | 49.17500 | 12.43046 | 23202 ft | 392 kts | 168° |
| 2026-05-07 15:02 | 49.14885 | 12.44137 | 22618 ft | 387 kts | 168° |
| 2026-05-07 15:03 | 49.12304 | 12.45213 | 22054 ft | 382 kts | 168° |
| 2026-05-07 15:03 | 49.09756 | 12.46273 | 21490 ft | 376 kts | 168° |
| 2026-05-07 15:03 | 49.07246 | 12.47318 | 20949 ft | 371 kts | 168° |
| 2026-05-07 15:03 | 49.04766 | 12.48348 | 20411 ft | 369 kts | 169° |
| 2026-05-07 15:04 | 49.02285 | 12.49376 | 19917 ft | 369 kts | 169° |
| 2026-05-07 15:04 | 48.99799 | 12.50406 | 19422 ft | 370 kts | 169° |
| 2026-05-07 15:04 | 48.97320 | 12.51431 | 18944 ft | 369 kts | 169° |
| 2026-05-07 15:04 | 48.94838 | 12.52456 | 18474 ft | 369 kts | 169° |
| 2026-05-07 15:05 | 48.92368 | 12.53477 | 17946 ft | 366 kts | 169° |
| 2026-05-07 15:05 | 48.89923 | 12.54488 | 17396 ft | 360 kts | 169° |
| 2026-05-07 15:05 | 48.87520 | 12.55481 | 16863 ft | 355 kts | 169° |
| 2026-05-07 15:05 | 48.85146 | 12.56461 | 16340 ft | 351 kts | 169° |
| 2026-05-07 15:06 | 48.82787 | 12.57431 | 15829 ft | 352 kts | 168° |
| 2026-05-07 15:06 | 48.80418 | 12.58402 | 15332 ft | 353 kts | 168° |
| 2026-05-07 15:06 | 48.78044 | 12.59376 | 14839 ft | 354 kts | 168° |
| 2026-05-07 15:06 | 48.75689 | 12.60341 | 14350 ft | 354 kts | 168° |
| 2026-05-07 15:07 | 48.73305 | 12.61318 | 13881 ft | 355 kts | 168° |
| 2026-05-07 15:07 | 48.70899 | 12.62304 | 13328 ft | 351 kts | 168° |
| 2026-05-07 15:07 | 48.68604 | 12.63246 | 12799 ft | 342 kts | 168° |
| 2026-05-07 15:07 | 48.66331 | 12.64178 | 12270 ft | 335 kts | 168° |
| 2026-05-07 15:08 | 48.64100 | 12.65090 | 11751 ft | 329 kts | 168° |
| 2026-05-07 15:08 | 48.61884 | 12.65995 | 11241 ft | 323 kts | 168° |
| 2026-05-07 15:08 | 48.59732 | 12.66872 | 10721 ft | 318 kts | 168° |
| 2026-05-07 15:08 | 48.57652 | 12.67720 | 10431 ft | 307 kts | 168° |
| 2026-05-07 15:09 | 48.55625 | 12.68546 | 10180 ft | 296 kts | 168° |
| 2026-05-07 15:09 | 48.53663 | 12.69344 | 10040 ft | 292 kts | 168° |
| 2026-05-07 15:09 | 48.51681 | 12.70146 | 10019 ft | 295 kts | 168° |
| 2026-05-07 15:09 | 48.49705 | 12.70947 | 9998 ft | 292 kts | 168° |
| 2026-05-07 15:10 | 48.47759 | 12.71737 | 9994 ft | 289 kts | 168° |
| 2026-05-07 15:10 | 48.45812 | 12.72525 | 10000 ft | 290 kts | 168° |
| 2026-05-07 15:10 | 48.43858 | 12.73317 | 9971 ft | 291 kts | 168° |
| 2026-05-07 15:10 | 48.41886 | 12.74113 | 9666 ft | 296 kts | 168° |
| 2026-05-07 15:11 | 48.39894 | 12.74918 | 9351 ft | 296 kts | 168° |
| 2026-05-07 15:11 | 48.37911 | 12.75675 | 9018 ft | 291 kts | 169° |
| 2026-05-07 15:11 | 48.35957 | 12.76381 | 8705 ft | 285 kts | 169° |
| 2026-05-07 15:11 | 48.34041 | 12.77066 | 8391 ft | 281 kts | 170° |
| 2026-05-07 15:12 | 48.32136 | 12.77747 | 8073 ft | 280 kts | 169° |
| 2026-05-07 15:12 | 48.30233 | 12.78427 | 7684 ft | 280 kts | 169° |
| 2026-05-07 15:12 | 48.28353 | 12.79102 | 7385 ft | 275 kts | 169° |
| 2026-05-07 15:12 | 48.26537 | 12.79756 | 7071 ft | 270 kts | 169° |
| 2026-05-07 15:13 | 48.24724 | 12.80410 | 6782 ft | 265 kts | 170° |
| 2026-05-07 15:13 | 48.22942 | 12.81050 | 6479 ft | 261 kts | 169° |
| 2026-05-07 15:13 | 48.21187 | 12.81681 | 6177 ft | 258 kts | 169° |
| 2026-05-07 15:13 | 48.19446 | 12.82307 | 5865 ft | 255 kts | 170° |
| 2026-05-07 15:14 | 48.17727 | 12.82923 | 5550 ft | 252 kts | 169° |
| 2026-05-07 15:14 | 48.16025 | 12.83535 | 5282 ft | 253 kts | 169° |
| 2026-05-07 15:14 | 48.14311 | 12.84159 | 5021 ft | 253 kts | 169° |
| 2026-05-07 15:14 | 48.12610 | 12.84780 | 4765 ft | 249 kts | 169° |
| 2026-05-07 15:15 | 48.10940 | 12.85389 | 4503 ft | 245 kts | 169° |
| 2026-05-07 15:15 | 48.09299 | 12.85988 | 4231 ft | 240 kts | 169° |
| 2026-05-07 15:15 | 48.07679 | 12.86580 | 4054 ft | 238 kts | 169° |
| 2026-05-07 15:15 | 48.06057 | 12.87169 | 4030 ft | 242 kts | 169° |
| 2026-05-07 15:16 | 48.04451 | 12.87752 | 4000 ft | 239 kts | 169° |
| 2026-05-07 15:16 | 48.02838 | 12.88339 | 3994 ft | 238 kts | 169° |
| 2026-05-07 15:16 | 48.01221 | 12.88927 | 4005 ft | 241 kts | 169° |
| 2026-05-07 15:16 | 47.99592 | 12.89415 | 3992 ft | 234 kts | 179° |
| 2026-05-07 15:17 | 47.98027 | 12.89456 | 4003 ft | 214 kts | 183° |
| 2026-05-07 15:17 | 47.96602 | 12.89478 | 3987 ft | 195 kts | 178° |
| 2026-05-07 15:17 | 47.95384 | 12.90159 | 3997 ft | 181 kts | 154° |
| 2026-05-07 15:17 | 47.94257 | 12.90956 | 4014 ft | 178 kts | 160° |
| 2026-05-07 15:18 | 47.93106 | 12.91677 | 4009 ft | 181 kts | 161° |
| 2026-05-07 15:18 | 47.91940 | 12.92409 | 3898 ft | 183 kts | 161° |
| 2026-05-07 15:18 | 47.90773 | 12.93148 | 3704 ft | 183 kts | 159° |
| 2026-05-07 15:18 | 47.89596 | 12.93892 | 3452 ft | 180 kts | 159° |
| 2026-05-07 15:19 | 47.88480 | 12.94599 | 3199 ft | 169 kts | 159° |
| 2026-05-07 15:19 | 47.87426 | 12.95271 | 2983 ft | 164 kts | 161° |
| 2026-05-07 15:19 | 47.86386 | 12.95926 | 2769 ft | 165 kts | 161° |
| 2026-05-07 15:19 | 47.85327 | 12.96588 | 2539 ft | 160 kts | 160° |
| 2026-05-07 15:20 | 47.84329 | 12.97190 | 2275 ft | 154 kts | 159° |
| 2026-05-07 15:20 | 47.83359 | 12.97872 | 2093 ft | 155 kts | 155° |
| 2026-05-07 15:20 | 47.82345 | 12.98497 | 1859 ft | 158 kts | 160° |
| 2026-05-07 15:20 | 47.81333 | 12.99120 | 1667 ft | 158 kts | 156° |
| 2026-05-07 15:21 | 47.80303 | 12.99778 | 1460 ft | 163 kts | 155° |
| 2026-05-07 15:21 | 47.79329 | 13.00398 | 1422 ft | 131 kts | 158° |
| 2026-05-07 15:21 | 47.78689 | 13.00801 | 1419 ft | 69 kts | 157° |
| 2026-05-07 15:21 | 47.78357 | 13.01011 | 1416 ft | 31 kts | 158° |
| 2026-05-07 15:22 | 47.78218 | 13.01064 | 1416 ft | 14 kts | 203° |
| 2026-05-07 15:22 | 47.78185 | 13.00912 | 1420 ft | 18 kts | 287° |
| 2026-05-07 15:22 | 47.78277 | 13.00794 | 1420 ft | 20 kts | 336° |
| 2026-05-07 15:22 | 47.78422 | 13.00702 | 1420 ft | 26 kts | 338° |
| 2026-05-07 15:23 | 47.78592 | 13.00594 | 1421 ft | 26 kts | 336° |
| 2026-05-07 15:23 | 47.78756 | 13.00492 | 1419 ft | 26 kts | 337° |
| 2026-05-07 15:23 | 47.78920 | 13.00389 | 1418 ft | 18 kts | 337° |
| 2026-05-07 15:23 | 47.78954 | 13.00275 | 1421 ft | 13 kts | 272° |
| 2026-05-07 15:24 | 47.78958 | 13.00185 | 1421 ft | 13 kts | 277° |
| 2026-05-07 15:24 | 47.79013 | 13.00117 | 1421 ft | 10 kts | 337° |
| 2026-05-07 15:24 | 47.79099 | 13.00063 | 1421 ft | 10 kts | 336° |
| 2026-05-07 15:24 | 47.79152 | 13.00006 | 1421 ft | 9 kts | 288° |
| 2026-05-07 15:25 | 47.79160 | 12.99947 | 1421 ft | 6 kts | 282° |
| 2026-05-07 15:25 | 47.79165 | 12.99916 | 1421 ft | 0 kts | 281° |